createdAt,value
2022-09-17T00:01:31.485Z,64.04
2022-09-17T00:04:04.364Z,63.82
2022-09-17T00:06:34.868Z,63.86
2022-09-17T00:09:04.745Z,63.91
2022-09-17T00:11:35.246Z,64.00
2022-09-17T00:14:04.757Z,63.98
2022-09-17T00:16:36.675Z,63.80
2022-09-17T00:19:05.963Z,63.76
2022-09-17T00:21:33.677Z,64.05
2022-09-17T00:24:05.053Z,63.76
2022-09-17T00:26:33.838Z,63.64
2022-09-17T00:29:01.962Z,63.73
2022-09-17T00:31:30.820Z,63.28
2022-09-17T00:33:59.750Z,63.64
2022-09-17T00:36:27.250Z,63.78
2022-09-17T00:38:57.681Z,63.81
2022-09-17T00:41:30.686Z,63.86
2022-09-17T00:44:01.974Z,64.28
2022-09-17T00:46:36.855Z,64.10
2022-09-17T00:49:29.337Z,64.18
2022-09-17T00:52:11.086Z,64.25
2022-09-17T00:54:41.461Z,64.25
2022-09-17T00:57:09.459Z,64.38
2022-09-17T00:59:36.966Z,64.59
2022-09-17T01:02:06.449Z,64.36
2022-09-17T01:04:33.547Z,64.40
2022-09-17T01:07:13.659Z,64.45
2022-09-17T01:09:56.988Z,64.77
2022-09-17T01:13:07.500Z,65.04
2022-09-17T01:16:14.711Z,64.87
2022-09-17T01:18:53.836Z,65.03
2022-09-17T01:21:43.856Z,65.50
2022-09-17T01:24:51.456Z,65.33
2022-09-17T01:27:27.474Z,65.14
2022-09-17T01:30:17.316Z,64.87
2022-09-17T01:33:11.495Z,64.79
2022-09-17T01:35:54.885Z,64.59
2022-09-17T01:38:54.081Z,64.98
2022-09-17T01:41:27.403Z,64.75
2022-09-17T01:44:40.680Z,64.59
2022-09-17T01:47:30.420Z,64.67
2022-09-17T01:50:18.341Z,64.64
2022-09-17T01:52:49.947Z,64.87
2022-09-17T01:55:18.938Z,64.77
2022-09-17T01:58:08.706Z,65.04
2022-09-17T02:00:37.778Z,64.84
2022-09-17T02:03:17.430Z,65.19
2022-09-17T02:05:56.125Z,65.02
2022-09-17T02:08:28.784Z,65.22
2022-09-17T02:11:22.717Z,65.21
2022-09-17T02:14:10.221Z,65.26
2022-09-17T02:16:43.339Z,65.67
2022-09-17T02:19:23.691Z,65.50
2022-09-17T02:22:05.678Z,65.39
2022-09-17T02:25:08.903Z,65.46
2022-09-17T02:28:03.884Z,65.39
2022-09-17T02:30:32.263Z,65.13
2022-09-17T02:33:01.616Z,65.19
2022-09-17T02:35:31.134Z,64.93
2022-09-17T02:37:58.806Z,64.62
2022-09-17T02:40:30.203Z,64.46
2022-09-17T02:43:32.538Z,64.41
2022-09-17T02:46:36.328Z,64.65
2022-09-17T02:49:41.253Z,64.52
2022-09-17T02:53:00.781Z,64.42
2022-09-17T02:55:51.222Z,64.40
2022-09-17T02:58:32.524Z,64.43
2022-09-17T03:01:09.974Z,64.72
2022-09-17T03:03:43.713Z,64.56
2022-09-17T03:06:10.870Z,64.76
2022-09-17T03:08:41.585Z,64.81
2022-09-17T03:11:12.952Z,64.92
2022-09-17T03:13:40.884Z,64.98
2022-09-17T03:16:08.559Z,65.00
2022-09-17T03:18:36.001Z,65.06
2022-09-17T03:21:03.249Z,64.87
2022-09-17T03:23:30.828Z,64.96
2022-09-17T03:25:59.341Z,65.55
2022-09-17T03:28:26.566Z,65.73
2022-09-17T03:30:54.612Z,65.43
2022-09-17T03:33:22.079Z,65.87
2022-09-17T03:35:49.170Z,65.55
2022-09-17T03:38:17.260Z,65.56
2022-09-17T03:40:44.494Z,65.87
2022-09-17T03:43:11.697Z,65.72
2022-09-17T03:45:39.310Z,65.95
2022-09-17T03:48:06.635Z,66.12
2022-09-17T03:50:33.647Z,66.06
2022-09-17T03:53:01.165Z,66.19
2022-09-17T03:55:28.368Z,66.23
2022-09-17T03:57:56.186Z,66.22
2022-09-17T04:00:24.434Z,66.01
2022-09-17T04:02:51.651Z,65.52
2022-09-17T04:05:18.571Z,65.95
2022-09-17T04:07:45.825Z,65.86
2022-09-17T04:10:12.847Z,65.57
2022-09-17T04:12:40.050Z,65.26
2022-09-17T04:15:08.038Z,65.07
2022-09-17T04:17:35.107Z,65.43
2022-09-17T04:20:04.136Z,65.22
2022-09-17T04:22:31.192Z,65.32
2022-09-17T04:24:58.325Z,65.51
2022-09-17T04:27:25.451Z,65.60
2022-09-17T04:29:52.572Z,65.45
2022-09-17T04:32:19.610Z,65.42
2022-09-17T04:34:46.718Z,65.45
2022-09-17T04:37:13.905Z,65.33
2022-09-17T04:39:40.844Z,65.24
2022-09-17T04:42:07.884Z,65.47
2022-09-17T04:44:34.944Z,65.44
2022-09-17T04:47:02.044Z,65.27
2022-09-17T04:49:31.017Z,65.38
2022-09-17T04:51:58.018Z,65.30
2022-09-17T04:54:25.388Z,65.75
2022-09-17T04:56:52.899Z,65.49
2022-09-17T04:59:19.851Z,65.63
2022-09-17T05:01:47.250Z,65.42
2022-09-17T05:04:14.205Z,65.85
2022-09-17T05:06:41.750Z,65.86
2022-09-17T05:09:08.941Z,65.65
2022-09-17T05:11:36.525Z,65.53
2022-09-17T05:14:03.896Z,65.45
2022-09-17T05:16:31.006Z,65.23
2022-09-17T05:18:58.225Z,65.39
2022-09-17T05:21:25.772Z,65.34
2022-09-17T05:23:52.812Z,65.29
2022-09-17T05:26:19.734Z,64.99
2022-09-17T05:28:46.768Z,65.21
2022-09-17T05:31:14.158Z,64.96
2022-09-17T05:33:41.119Z,65.08
2022-09-17T05:36:08.585Z,65.23
2022-09-17T05:38:35.925Z,65.13
2022-09-17T05:41:07.599Z,65.03
2022-09-17T05:43:34.934Z,65.08
2022-09-17T05:46:06.083Z,65.07
2022-09-17T05:48:34.072Z,64.91
2022-09-17T05:51:01.033Z,65.13
2022-09-17T05:53:27.987Z,65.05
2022-09-17T05:55:59.162Z,65.02
2022-09-17T05:58:27.256Z,65.00
2022-09-17T06:00:54.332Z,64.47
2022-09-17T06:03:22.902Z,64.37
2022-09-17T06:05:59.128Z,64.60
2022-09-17T06:08:28.646Z,64.53
2022-09-17T06:11:00.226Z,64.69
2022-09-17T06:13:28.936Z,64.36
2022-09-17T06:15:58.620Z,64.22
2022-09-17T06:18:25.655Z,64.20
2022-09-17T06:21:01.307Z,64.08
2022-09-17T06:23:35.130Z,64.15
2022-09-17T06:26:03.492Z,63.85
2022-09-17T06:28:30.540Z,63.71
2022-09-17T06:31:03.345Z,63.66
2022-09-17T06:33:32.238Z,63.47
2022-09-17T06:36:01.695Z,63.74
2022-09-17T06:38:29.786Z,63.33
2022-09-17T06:40:58.213Z,63.25
2022-09-17T06:43:25.867Z,62.86
2022-09-17T06:45:57.940Z,62.85
2022-09-17T06:48:27.476Z,63.03
2022-09-17T06:50:55.480Z,62.95
2022-09-17T06:53:24.284Z,62.16
2022-09-17T06:55:51.754Z,62.56
2022-09-17T06:58:18.813Z,62.84
2022-09-17T07:00:46.169Z,62.51
2022-09-17T07:03:13.171Z,61.61
2022-09-17T07:05:40.230Z,61.80
2022-09-17T07:08:07.431Z,61.85
2022-09-17T07:10:34.447Z,61.72
2022-09-17T07:13:01.532Z,61.74
2022-09-17T07:15:28.620Z,61.68
2022-09-17T07:17:55.752Z,61.88
2022-09-17T07:20:22.717Z,61.94
2022-09-17T07:22:57.749Z,61.79
2022-09-17T07:25:26.778Z,61.52
2022-09-17T07:27:53.947Z,61.36
2022-09-17T07:30:21.903Z,61.30
2022-09-17T07:32:48.938Z,60.50
2022-09-17T07:35:15.990Z,59.82
2022-09-17T07:37:42.868Z,58.67
2022-09-17T07:40:10.193Z,58.90
2022-09-17T07:42:37.381Z,59.51
2022-09-17T07:45:05.015Z,60.03
2022-09-17T07:47:32.897Z,59.06
2022-09-17T07:49:59.835Z,59.00
2022-09-17T07:52:27.090Z,59.36
2022-09-17T07:54:54.003Z,59.36
2022-09-17T07:57:21.074Z,59.89
2022-09-17T07:59:48.009Z,59.95
2022-09-17T08:02:15.186Z,59.89
2022-09-17T08:04:46.084Z,59.46
2022-09-17T08:07:13.993Z,59.16
2022-09-17T08:09:41.010Z,59.05
2022-09-17T08:12:08.201Z,58.81
2022-09-17T08:14:35.322Z,59.24
2022-09-17T08:17:02.274Z,58.92
2022-09-17T08:19:32.990Z,59.15
2022-09-17T08:22:00.215Z,59.83
2022-09-17T08:24:27.812Z,59.79
2022-09-17T08:26:54.855Z,59.07
2022-09-17T08:29:21.864Z,59.39
2022-09-17T08:31:49.945Z,57.88
2022-09-17T08:34:16.985Z,58.69
2022-09-17T08:36:44.832Z,58.06
2022-09-17T08:39:12.430Z,58.49
2022-09-17T08:41:50.855Z,58.34
2022-09-17T08:44:36.804Z,58.32
2022-09-17T08:47:33.614Z,58.16
2022-09-17T08:50:05.865Z,56.44
2022-09-17T08:53:04.398Z,57.57
2022-09-17T08:55:51.765Z,56.35
2022-09-17T08:58:47.075Z,56.74
2022-09-17T09:01:47.497Z,57.10
2022-09-17T09:04:18.512Z,56.22
2022-09-17T09:06:52.629Z,55.75
2022-09-17T09:09:25.042Z,55.26
2022-09-17T09:12:03.501Z,55.07
2022-09-17T09:14:41.628Z,55.54
2022-09-17T09:17:10.987Z,55.92
2022-09-17T09:19:46.798Z,56.00
2022-09-17T09:22:38.761Z,54.88
2022-09-17T09:25:23.435Z,55.73
2022-09-17T09:28:35.312Z,55.00
2022-09-17T09:31:38.958Z,55.57
2022-09-17T09:34:06.170Z,55.43
2022-09-17T09:36:34.101Z,55.21
2022-09-17T09:39:30.707Z,55.17
2022-09-17T09:42:10.657Z,54.63
2022-09-17T09:44:38.093Z,54.37
2022-09-17T09:47:19.960Z,54.33
2022-09-17T09:50:38.386Z,53.74
2022-09-17T09:53:51.684Z,54.78
2022-09-17T09:56:32.929Z,55.18
2022-09-17T09:58:59.958Z,53.70
2022-09-17T10:01:31.698Z,54.47
2022-09-17T10:03:58.941Z,53.57
2022-09-17T10:06:30.597Z,53.48
2022-09-17T10:08:57.486Z,53.68
2022-09-17T10:11:28.802Z,54.00
2022-09-17T10:14:25.876Z,54.54
2022-09-17T10:17:26.593Z,54.59
2022-09-17T10:20:05.595Z,54.70
2022-09-17T10:22:38.652Z,54.98
2022-09-17T10:25:21.394Z,54.88
2022-09-17T10:27:49.600Z,54.45
2022-09-17T10:30:19.025Z,55.03
2022-09-17T10:33:34.043Z,55.03
2022-09-17T10:36:10.182Z,55.18
2022-09-17T10:38:46.094Z,56.04
2022-09-17T10:41:22.317Z,56.40
2022-09-17T10:43:51.063Z,55.67
2022-09-17T10:46:29.131Z,56.35
2022-09-17T10:49:32.605Z,56.51
2022-09-17T10:52:15.044Z,55.28
2022-09-17T10:55:10.121Z,55.42
2022-09-17T10:58:08.019Z,55.81
2022-09-17T11:00:53.013Z,56.28
2022-09-17T11:03:59.072Z,56.48
2022-09-17T11:06:52.685Z,57.26
2022-09-17T11:10:01.628Z,57.42
2022-09-17T11:13:07.722Z,57.50
2022-09-17T11:15:52.769Z,58.28
2022-09-17T11:18:36.026Z,58.90
2022-09-17T11:21:35.788Z,59.03
2022-09-17T11:24:48.778Z,59.42
2022-09-17T11:27:47.894Z,59.69
2022-09-17T11:30:24.152Z,59.64
2022-09-17T11:33:05.904Z,59.97
2022-09-17T11:35:49.777Z,60.18
2022-09-17T11:38:30.583Z,60.02
2022-09-17T11:41:08.235Z,60.11
2022-09-17T11:43:42.131Z,60.29
2022-09-17T11:46:29.334Z,60.33
2022-09-17T11:49:52.436Z,60.56
2022-09-17T11:52:28.580Z,60.64
2022-09-17T11:55:35.915Z,59.81
2022-09-17T11:58:28.483Z,59.52
2022-09-17T12:01:12.798Z,59.33
2022-09-17T12:04:01.726Z,59.10
2022-09-17T12:06:46.878Z,59.34
2022-09-17T12:09:23.229Z,59.37
2022-09-17T12:12:05.643Z,59.21
2022-09-17T12:14:51.138Z,59.32
2022-09-17T12:17:28.055Z,59.32
2022-09-17T12:20:03.436Z,59.24
2022-09-17T12:22:40.069Z,58.82
2022-09-17T12:25:13.352Z,58.66
2022-09-17T12:27:46.030Z,58.52
2022-09-17T12:30:22.002Z,58.01
2022-09-17T12:33:07.496Z,57.77
2022-09-17T12:36:05.786Z,57.63
2022-09-17T12:39:12.045Z,57.97
2022-09-17T12:42:04.977Z,58.13
2022-09-17T12:45:26.322Z,58.31
2022-09-17T12:48:00.189Z,57.81
2022-09-17T12:50:49.886Z,57.63
2022-09-17T12:53:22.939Z,57.39
2022-09-17T12:56:22.405Z,57.62
2022-09-17T12:59:11.361Z,56.47
2022-09-17T13:02:00.155Z,56.65
2022-09-17T13:05:15.904Z,57.34
2022-09-17T13:08:33.309Z,57.29
2022-09-17T13:11:21.481Z,56.57
2022-09-17T13:14:33.808Z,56.41
2022-09-17T13:17:11.267Z,56.12
2022-09-17T13:20:20.487Z,55.82
2022-09-17T13:22:50.613Z,55.64
2022-09-17T13:25:20.717Z,55.65
2022-09-17T13:27:50.278Z,56.32
2022-09-17T13:30:20.765Z,55.75
2022-09-17T13:32:51.305Z,56.34
2022-09-17T13:35:18.200Z,56.74
2022-09-17T13:37:59.154Z,56.41
2022-09-17T13:40:37.425Z,56.87
2022-09-17T13:43:04.412Z,56.24
2022-09-17T13:45:34.144Z,56.95
2022-09-17T13:48:08.509Z,56.75
2022-09-17T13:50:41.949Z,57.60
2022-09-17T13:53:21.381Z,57.53
2022-09-17T13:56:01.153Z,58.28
2022-09-17T13:58:32.369Z,58.47
2022-09-17T14:01:09.452Z,58.54
2022-09-17T14:03:41.212Z,59.23
2022-09-17T14:06:08.557Z,59.25
2022-09-17T14:08:44.441Z,59.82
2022-09-17T14:12:44.443Z,60.83
2022-09-17T14:15:43.323Z,60.86
2022-09-17T14:18:28.745Z,61.44
2022-09-17T14:21:09.761Z,61.73
2022-09-17T14:23:48.392Z,61.69
2022-09-17T14:26:32.350Z,61.72
2022-09-17T14:29:16.846Z,61.83
2022-09-17T14:31:43.975Z,62.26
2022-09-17T14:34:20.546Z,62.11
2022-09-17T14:36:48.441Z,61.65
2022-09-17T14:39:24.205Z,61.89
2022-09-17T14:41:53.027Z,62.27
2022-09-17T14:44:23.448Z,62.02
2022-09-17T14:47:06.871Z,62.19
2022-09-17T14:49:36.813Z,62.56
2022-09-17T14:52:30.674Z,62.31
2022-09-17T14:55:26.951Z,62.44
2022-09-17T14:58:05.167Z,62.30
2022-09-17T15:00:36.115Z,62.88
2022-09-17T15:03:03.288Z,62.66
2022-09-17T15:05:33.129Z,62.91
2022-09-17T15:08:21.315Z,62.65
2022-09-17T15:11:03.427Z,63.17
2022-09-17T15:13:50.315Z,62.57
2022-09-17T15:16:26.113Z,62.12
2022-09-17T15:19:04.173Z,62.48
2022-09-17T15:21:45.879Z,62.57
2022-09-17T15:24:34.173Z,62.23
2022-09-17T15:27:10.868Z,62.97
2022-09-17T15:29:44.299Z,63.17
2022-09-17T15:32:14.101Z,63.05
2022-09-17T15:34:42.045Z,63.00
2022-09-17T15:37:28.188Z,62.93
2022-09-17T15:39:56.866Z,63.18
2022-09-17T15:42:30.430Z,62.92
2022-09-17T15:45:20.568Z,62.91
2022-09-17T15:47:56.714Z,62.97
2022-09-17T15:50:36.401Z,62.81
2022-09-17T15:53:09.265Z,62.68
2022-09-17T15:55:43.750Z,62.57
2022-09-17T15:58:27.961Z,62.55
2022-09-17T16:01:17.421Z,62.29
2022-09-17T16:03:44.819Z,62.17
2022-09-17T16:06:21.472Z,62.33
2022-09-17T16:08:51.408Z,62.08
2022-09-17T16:11:21.222Z,62.09
2022-09-17T16:13:49.503Z,62.17
2022-09-17T16:16:19.838Z,62.09
2022-09-17T16:18:47.155Z,62.25
2022-09-17T16:21:16.168Z,62.43
2022-09-17T16:23:43.882Z,62.48
2022-09-17T16:26:18.567Z,62.31
2022-09-17T16:28:48.523Z,62.16
2022-09-17T16:31:15.757Z,62.87
2022-09-17T16:33:42.799Z,62.21
2022-09-17T16:36:10.085Z,62.55
2022-09-17T16:38:37.154Z,62.28
2022-09-17T16:41:08.596Z,62.42
2022-09-17T16:43:35.774Z,62.50
2022-09-17T16:46:07.857Z,62.36
2022-09-17T16:48:35.231Z,62.44
2022-09-17T16:51:13.945Z,62.56
2022-09-17T16:53:41.638Z,62.26
2022-09-17T16:56:11.143Z,62.68
2022-09-17T16:58:38.622Z,62.13
2022-09-17T17:01:14.089Z,62.07
2022-09-17T17:03:42.046Z,62.43
2022-09-17T17:06:17.877Z,62.05
2022-09-17T17:08:45.899Z,62.18
2022-09-17T17:11:14.854Z,62.92
2022-09-17T17:13:45.497Z,62.29
2022-09-17T17:16:15.030Z,62.41
2022-09-17T17:18:44.148Z,62.34
2022-09-17T17:21:13.733Z,62.69
2022-09-17T17:23:43.572Z,62.23
2022-09-17T17:26:10.608Z,61.87
2022-09-17T17:28:37.806Z,62.05
2022-09-17T17:31:05.914Z,62.58
2022-09-17T17:33:33.532Z,62.72
2022-09-17T17:36:07.593Z,62.62
2022-09-17T17:38:36.907Z,62.81
2022-09-17T17:41:13.082Z,62.71
2022-09-17T17:43:41.316Z,62.14
2022-09-17T17:46:11.188Z,62.71
2022-09-17T17:48:38.568Z,62.71
2022-09-17T17:51:10.447Z,62.58
2022-09-17T17:53:38.285Z,62.61
2022-09-17T17:56:07.760Z,62.48
2022-09-17T17:58:36.910Z,62.56
2022-09-17T18:01:23.801Z,62.47
2022-09-17T18:03:55.703Z,62.41
2022-09-17T18:06:22.656Z,62.16
2022-09-17T18:08:49.581Z,62.69
2022-09-17T18:11:16.776Z,62.52
2022-09-17T18:13:44.858Z,62.42
2022-09-17T18:16:15.619Z,62.97
2022-09-17T18:18:45.358Z,62.42
2022-09-17T18:21:22.843Z,62.73
2022-09-17T18:23:50.854Z,62.92
2022-09-17T18:26:22.099Z,62.91
2022-09-17T18:28:50.888Z,63.26
2022-09-17T18:31:31.507Z,62.86
2022-09-17T18:34:12.370Z,62.56
2022-09-17T18:36:40.849Z,62.65
2022-09-17T18:39:44.929Z,63.16
2022-09-17T18:41:59.013Z,63.21
2022-09-17T18:44:26.087Z,63.17
2022-09-17T18:46:53.867Z,63.61
2022-09-17T18:49:21.329Z,63.14
2022-09-17T18:51:48.558Z,62.99
2022-09-17T18:54:15.911Z,62.88
2022-09-17T18:56:42.978Z,62.91
2022-09-17T18:59:10.899Z,63.00
2022-09-17T19:01:38.319Z,62.72
2022-09-17T19:04:10.040Z,62.79
2022-09-17T19:06:38.046Z,62.85
2022-09-17T19:09:05.785Z,62.96
2022-09-17T19:11:36.255Z,62.35
2022-09-17T19:14:03.532Z,62.66
2022-09-17T19:16:30.843Z,62.46
2022-09-17T19:18:58.032Z,62.32
2022-09-17T19:21:25.025Z,62.21
2022-09-17T19:23:53.750Z,62.12
2022-09-17T19:26:25.304Z,61.91
2022-09-17T19:29:03.451Z,61.90
2022-09-17T19:31:30.917Z,61.80
2022-09-17T19:34:00.173Z,61.62
2022-09-17T19:36:27.601Z,61.75
2022-09-17T19:38:55.509Z,61.88
2022-09-17T19:41:23.214Z,61.90
2022-09-17T19:43:54.955Z,61.87
2022-09-17T19:46:26.968Z,61.98
2022-09-17T19:48:57.165Z,62.22
2022-09-17T19:51:26.606Z,61.99
2022-09-17T19:53:53.779Z,61.88
2022-09-17T19:56:24.382Z,61.70
2022-09-17T19:58:52.215Z,61.79
2022-09-17T20:01:20.122Z,61.96
2022-09-17T20:03:48.805Z,61.75
2022-09-17T20:06:20.561Z,61.67
2022-09-17T20:08:50.551Z,61.87
2022-09-17T20:11:19.881Z,62.18
2022-09-17T20:13:47.027Z,62.29
2022-09-17T20:16:21.533Z,62.16
2022-09-17T20:18:49.722Z,62.12
2022-09-17T20:21:23.782Z,62.63
2022-09-17T20:23:51.623Z,62.30
2022-09-17T20:26:18.752Z,62.41
2022-09-17T20:28:46.837Z,62.58
2022-09-17T20:31:20.768Z,62.52
2022-09-17T20:33:48.283Z,62.58
2022-09-17T20:36:18.876Z,62.70
2022-09-17T20:41:36.247Z,62.78
2022-09-17T20:44:03.385Z,62.54
2022-09-17T20:46:30.512Z,62.57
2022-09-17T20:48:58.183Z,62.79
2022-09-17T20:51:29.142Z,62.70
2022-09-17T20:53:57.703Z,62.78
2022-09-17T20:56:29.524Z,62.73
2022-09-17T20:59:08.878Z,62.56
2022-09-17T21:01:37.571Z,62.22
2022-09-17T21:04:07.546Z,62.14
2022-09-17T21:06:38.608Z,62.26
2022-09-17T21:09:06.509Z,62.19
2022-09-17T21:11:35.362Z,62.17
2022-09-17T21:14:03.228Z,62.31
2022-09-17T21:16:30.895Z,61.99
2022-09-17T21:19:01.528Z,62.11
2022-09-17T21:21:29.909Z,61.83
2022-09-17T21:24:04.781Z,61.89
2022-09-17T21:26:32.585Z,61.88
2022-09-17T21:29:00.017Z,61.86
2022-09-17T21:31:32.642Z,61.86
2022-09-17T21:34:07.822Z,61.86
2022-09-17T21:36:38.704Z,61.72
2022-09-17T21:39:15.547Z,61.48
2022-09-17T21:41:44.413Z,61.53
2022-09-17T21:44:12.625Z,61.58
2022-09-17T21:46:41.581Z,61.58
2022-09-17T21:49:09.318Z,61.48
2022-09-17T21:51:40.071Z,61.67
2022-09-17T21:54:13.780Z,61.80
2022-09-17T21:56:40.917Z,61.84
2022-09-17T21:59:11.890Z,61.87
2022-09-17T22:01:46.803Z,61.80
2022-09-17T22:04:18.128Z,62.10
2022-09-17T22:06:47.609Z,62.11
2022-09-17T22:09:24.397Z,62.20
2022-09-17T22:11:53.252Z,62.41
2022-09-17T22:14:25.056Z,62.38
2022-09-17T22:16:55.161Z,62.09
2022-09-17T22:19:25.015Z,62.24
2022-09-17T22:21:54.648Z,61.81
2022-09-17T22:24:22.812Z,62.09
2022-09-17T22:26:57.226Z,61.98
2022-09-17T22:29:28.117Z,61.85
2022-09-17T22:31:55.348Z,61.68
2022-09-17T22:34:23.735Z,61.68
2022-09-17T22:36:50.961Z,62.14
2022-09-17T22:39:21.340Z,62.05
2022-09-17T22:41:48.464Z,62.36
2022-09-17T22:44:18.582Z,62.61
2022-09-17T22:46:48.684Z,62.66
2022-09-17T22:49:16.568Z,62.98
2022-09-17T22:51:45.139Z,63.03
2022-09-17T22:54:14.348Z,62.79
2022-09-17T22:56:42.233Z,62.90
2022-09-17T22:59:09.511Z,62.60
2022-09-17T23:01:37.353Z,62.76
2022-09-17T23:04:05.969Z,62.35
2022-09-17T23:06:37.944Z,62.86
2022-09-17T23:09:05.720Z,62.80
2022-09-17T23:11:36.836Z,63.05
2022-09-17T23:14:12.101Z,62.54
2022-09-17T23:16:46.340Z,62.54
2022-09-17T23:19:16.344Z,62.50
2022-09-17T23:21:44.512Z,62.93
2022-09-17T23:24:18.943Z,62.75
2022-09-17T23:26:46.511Z,62.74
2022-09-17T23:29:14.077Z,62.81
2022-09-17T23:31:41.473Z,62.87
2022-09-17T23:34:09.543Z,62.76
2022-09-17T23:36:39.013Z,62.69
2022-09-17T23:39:07.922Z,62.75
2022-09-17T23:41:43.008Z,62.60
2022-09-17T23:44:14.868Z,62.18
2022-09-17T23:46:44.843Z,62.17
2022-09-17T23:49:14.372Z,62.23
2022-09-17T23:51:41.385Z,62.19
2022-09-17T23:54:09.037Z,62.21
2022-09-17T23:56:36.453Z,62.07
2022-09-17T23:59:04.786Z,62.03
